sensor_id;sensor_type;location;lat;lon;timestamp;P1;durP1;ratioP1;P2;durP2;ratioP2
53833;SDS011;39735;51.432;5.482;2023-04-15T00:01:46;17.25;;;4.93;;
53833;SDS011;39735;51.432;5.482;2023-04-15T00:04:12;11.95;;;4.93;;
53833;SDS011;39735;51.432;5.482;2023-04-15T00:06:37;11.43;;;5.18;;
53833;SDS011;39735;51.432;5.482;2023-04-15T00:09:04;21.10;;;4.75;;
53833;SDS011;39735;51.432;5.482;2023-04-15T00:11:29;16.50;;;5.78;;
53833;SDS011;39735;51.432;5.482;2023-04-15T00:13:55;19.70;;;6.03;;
53833;SDS011;39735;51.432;5.482;2023-04-15T00:16:20;18.60;;;5.10;;
53833;SDS011;39735;51.432;5.482;2023-04-15T00:18:46;13.32;;;4.47;;
53833;SDS011;39735;51.432;5.482;2023-04-15T00:21:11;9.23;;;4.30;;
53833;SDS011;39735;51.432;5.482;2023-04-15T00:23:37;26.83;;;6.78;;
53833;SDS011;39735;51.432;5.482;2023-04-15T00:26:02;20.33;;;4.40;;
53833;SDS011;39735;51.432;5.482;2023-04-15T00:28:27;15.57;;;4.68;;
53833;SDS011;39735;51.432;5.482;2023-04-15T00:30:53;23.23;;;5.72;;
53833;SDS011;39735;51.432;5.482;2023-04-15T00:33:18;15.55;;;5.18;;
53833;SDS011;39735;51.432;5.482;2023-04-15T00:35:44;17.17;;;5.45;;
53833;SDS011;39735;51.432;5.482;2023-04-15T00:38:09;19.67;;;6.88;;
53833;SDS011;39735;51.432;5.482;2023-04-15T00:40:35;7.78;;;4.82;;
53833;SDS011;39735;51.432;5.482;2023-04-15T00:43:01;20.17;;;4.88;;
53833;SDS011;39735;51.432;5.482;2023-04-15T00:45:28;14.20;;;5.00;;
53833;SDS011;39735;51.432;5.482;2023-04-15T00:47:54;9.98;;;4.10;;
53833;SDS011;39735;51.432;5.482;2023-04-15T00:50:19;8.85;;;4.10;;
53833;SDS011;39735;51.432;5.482;2023-04-15T00:52:45;14.80;;;6.10;;
53833;SDS011;39735;51.432;5.482;2023-04-15T00:55:10;14.93;;;5.05;;
53833;SDS011;39735;51.432;5.482;2023-04-15T00:57:36;18.13;;;5.38;;
53833;SDS011;39735;51.432;5.482;2023-04-15T01:00:02;20.13;;;5.95;;
53833;SDS011;39735;51.432;5.482;2023-04-15T01:02:29;20.95;;;5.60;;
53833;SDS011;39735;51.432;5.482;2023-04-15T01:04:55;16.77;;;5.70;;
53833;SDS011;39735;51.432;5.482;2023-04-15T01:07:21;11.80;;;5.95;;
53833;SDS011;39735;51.432;5.482;2023-04-15T01:09:46;17.45;;;7.63;;
53833;SDS011;39735;51.432;5.482;2023-04-15T01:12:12;17.77;;;5.72;;
53833;SDS011;39735;51.432;5.482;2023-04-15T01:14:39;17.50;;;7.22;;
53833;SDS011;39735;51.432;5.482;2023-04-15T01:17:05;16.48;;;6.57;;
53833;SDS011;39735;51.432;5.482;2023-04-15T01:19:31;13.65;;;5.90;;
53833;SDS011;39735;51.432;5.482;2023-04-15T01:21:56;18.65;;;6.13;;
53833;SDS011;39735;51.432;5.482;2023-04-15T01:24:22;20.05;;;7.50;;
53833;SDS011;39735;51.432;5.482;2023-04-15T01:26:48;30.75;;;7.95;;
53833;SDS011;39735;51.432;5.482;2023-04-15T01:29:14;41.03;;;9.07;;
53833;SDS011;39735;51.432;5.482;2023-04-15T01:31:40;14.65;;;6.25;;
53833;SDS011;39735;51.432;5.482;2023-04-15T01:34:09;14.20;;;7.70;;
53833;SDS011;39735;51.432;5.482;2023-04-15T01:36:34;29.70;;;6.28;;
53833;SDS011;39735;51.432;5.482;2023-04-15T01:39:00;19.05;;;7.10;;
53833;SDS011;39735;51.432;5.482;2023-04-15T01:41:26;23.60;;;8.00;;
53833;SDS011;39735;51.432;5.482;2023-04-15T01:43:52;32.45;;;7.00;;
53833;SDS011;39735;51.432;5.482;2023-04-15T01:46:18;17.65;;;5.63;;
53833;SDS011;39735;51.432;5.482;2023-04-15T01:48:43;17.02;;;6.93;;
53833;SDS011;39735;51.432;5.482;2023-04-15T01:51:08;14.75;;;6.43;;
53833;SDS011;39735;51.432;5.482;2023-04-15T01:53:34;26.63;;;6.55;;
53833;SDS011;39735;51.432;5.482;2023-04-15T01:55:59;14.35;;;7.30;;
53833;SDS011;39735;51.432;5.482;2023-04-15T01:58:25;13.57;;;7.45;;
53833;SDS011;39735;51.432;5.482;2023-04-15T02:00:51;29.50;;;8.52;;
53833;SDS011;39735;51.432;5.482;2023-04-15T02:03:17;13.32;;;7.13;;
53833;SDS011;39735;51.432;5.482;2023-04-15T02:05:43;18.80;;;9.98;;
53833;SDS011;39735;51.432;5.482;2023-04-15T02:08:08;21.25;;;8.88;;
53833;SDS011;39735;51.432;5.482;2023-04-15T02:10:34;20.63;;;6.97;;
53833;SDS011;39735;51.432;5.482;2023-04-15T02:12:59;26.38;;;7.55;;
53833;SDS011;39735;51.432;5.482;2023-04-15T02:15:25;16.02;;;7.47;;
53833;SDS011;39735;51.432;5.482;2023-04-15T02:17:50;22.27;;;8.80;;
53833;SDS011;39735;51.432;5.482;2023-04-15T02:20:17;22.60;;;7.70;;
53833;SDS011;39735;51.432;5.482;2023-04-15T02:22:44;16.50;;;7.80;;
53833;SDS011;39735;51.432;5.482;2023-04-15T02:25:09;19.27;;;8.07;;
53833;SDS011;39735;51.432;5.482;2023-04-15T02:27:35;24.98;;;8.52;;
53833;SDS011;39735;51.432;5.482;2023-04-15T02:30:01;20.42;;;8.70;;
53833;SDS011;39735;51.432;5.482;2023-04-15T02:32:27;19.23;;;7.50;;
53833;SDS011;39735;51.432;5.482;2023-04-15T02:34:53;27.60;;;7.22;;
53833;SDS011;39735;51.432;5.482;2023-04-15T02:37:18;18.05;;;9.77;;
53833;SDS011;39735;51.432;5.482;2023-04-15T02:39:44;20.33;;;8.23;;
53833;SDS011;39735;51.432;5.482;2023-04-15T02:42:10;16.95;;;7.78;;
53833;SDS011;39735;51.432;5.482;2023-04-15T02:44:35;37.35;;;10.73;;
53833;SDS011;39735;51.432;5.482;2023-04-15T02:47:01;17.95;;;9.13;;
53833;SDS011;39735;51.432;5.482;2023-04-15T02:49:27;15.80;;;7.30;;
53833;SDS011;39735;51.432;5.482;2023-04-15T02:51:54;17.38;;;9.02;;
53833;SDS011;39735;51.432;5.482;2023-04-15T02:54:24;16.35;;;8.40;;
53833;SDS011;39735;51.432;5.482;2023-04-15T02:56:50;21.77;;;9.15;;
53833;SDS011;39735;51.432;5.482;2023-04-15T02:59:19;20.90;;;8.73;;
53833;SDS011;39735;51.432;5.482;2023-04-15T03:01:45;19.02;;;8.40;;
53833;SDS011;39735;51.432;5.482;2023-04-15T03:04:10;17.23;;;8.23;;
53833;SDS011;39735;51.432;5.482;2023-04-15T03:06:35;18.00;;;8.30;;
53833;SDS011;39735;51.432;5.482;2023-04-15T03:09:01;23.08;;;10.48;;
53833;SDS011;39735;51.432;5.482;2023-04-15T03:11:27;17.63;;;8.32;;
53833;SDS011;39735;51.432;5.482;2023-04-15T03:13:53;17.90;;;7.82;;
53833;SDS011;39735;51.432;5.482;2023-04-15T03:16:19;25.52;;;8.02;;
53833;SDS011;39735;51.432;5.482;2023-04-15T03:18:44;18.45;;;8.52;;
53833;SDS011;39735;51.432;5.482;2023-04-15T03:21:10;39.22;;;9.23;;
53833;SDS011;39735;51.432;5.482;2023-04-15T03:23:35;17.95;;;7.75;;
53833;SDS011;39735;51.432;5.482;2023-04-15T03:26:01;9.65;;;7.50;;
53833;SDS011;39735;51.432;5.482;2023-04-15T03:28:27;23.55;;;9.82;;
53833;SDS011;39735;51.432;5.482;2023-04-15T03:30:53;16.25;;;9.35;;
53833;SDS011;39735;51.432;5.482;2023-04-15T03:33:19;14.65;;;9.23;;
53833;SDS011;39735;51.432;5.482;2023-04-15T03:35:44;22.20;;;10.30;;
53833;SDS011;39735;51.432;5.482;2023-04-15T03:38:09;27.65;;;8.80;;
53833;SDS011;39735;51.432;5.482;2023-04-15T03:40:35;26.30;;;8.25;;
53833;SDS011;39735;51.432;5.482;2023-04-15T03:43:00;12.05;;;8.13;;
53833;SDS011;39735;51.432;5.482;2023-04-15T03:45:26;10.70;;;8.02;;
53833;SDS011;39735;51.432;5.482;2023-04-15T03:47:51;14.38;;;9.10;;
53833;SDS011;39735;51.432;5.482;2023-04-15T03:50:17;33.30;;;9.95;;
53833;SDS011;39735;51.432;5.482;2023-04-15T03:52:43;21.13;;;9.43;;
53833;SDS011;39735;51.432;5.482;2023-04-15T03:55:08;17.42;;;8.43;;
53833;SDS011;39735;51.432;5.482;2023-04-15T03:57:34;25.15;;;8.85;;
53833;SDS011;39735;51.432;5.482;2023-04-15T04:00:06;12.57;;;7.93;;
53833;SDS011;39735;51.432;5.482;2023-04-15T04:02:34;28.80;;;9.77;;
53833;SDS011;39735;51.432;5.482;2023-04-15T04:04:59;14.07;;;8.65;;
53833;SDS011;39735;51.432;5.482;2023-04-15T04:07:24;17.23;;;8.57;;
53833;SDS011;39735;51.432;5.482;2023-04-15T04:09:50;21.77;;;8.90;;
53833;SDS011;39735;51.432;5.482;2023-04-15T04:12:15;16.77;;;8.48;;
53833;SDS011;39735;51.432;5.482;2023-04-15T04:14:41;20.73;;;8.85;;
53833;SDS011;39735;51.432;5.482;2023-04-15T04:17:06;11.48;;;7.75;;
53833;SDS011;39735;51.432;5.482;2023-04-15T04:19:32;10.75;;;6.95;;
53833;SDS011;39735;51.432;5.482;2023-04-15T04:21:57;17.48;;;8.85;;
53833;SDS011;39735;51.432;5.482;2023-04-15T04:24:23;33.17;;;12.40;;
53833;SDS011;39735;51.432;5.482;2023-04-15T04:26:48;10.73;;;8.57;;
53833;SDS011;39735;51.432;5.482;2023-04-15T04:29:13;27.63;;;8.55;;
53833;SDS011;39735;51.432;5.482;2023-04-15T04:31:39;12.10;;;7.55;;
53833;SDS011;39735;51.432;5.482;2023-04-15T04:34:05;31.20;;;8.65;;
53833;SDS011;39735;51.432;5.482;2023-04-15T04:36:30;15.52;;;7.90;;
53833;SDS011;39735;51.432;5.482;2023-04-15T04:38:55;26.23;;;8.80;;
53833;SDS011;39735;51.432;5.482;2023-04-15T04:41:21;22.60;;;8.10;;
53833;SDS011;39735;51.432;5.482;2023-04-15T04:43:46;16.67;;;9.55;;
53833;SDS011;39735;51.432;5.482;2023-04-15T04:46:12;19.25;;;7.72;;
53833;SDS011;39735;51.432;5.482;2023-04-15T04:48:37;14.50;;;7.80;;
53833;SDS011;39735;51.432;5.482;2023-04-15T04:51:03;18.92;;;9.48;;
53833;SDS011;39735;51.432;5.482;2023-04-15T04:53:28;24.25;;;9.70;;
53833;SDS011;39735;51.432;5.482;2023-04-15T04:55:54;16.35;;;9.77;;
53833;SDS011;39735;51.432;5.482;2023-04-15T04:58:19;14.10;;;8.00;;
53833;SDS011;39735;51.432;5.482;2023-04-15T05:00:45;14.35;;;9.18;;
53833;SDS011;39735;51.432;5.482;2023-04-15T05:03:10;15.73;;;9.07;;
53833;SDS011;39735;51.432;5.482;2023-04-15T05:05:36;10.82;;;8.40;;
53833;SDS011;39735;51.432;5.482;2023-04-15T05:08:03;18.77;;;8.77;;
53833;SDS011;39735;51.432;5.482;2023-04-15T05:10:29;15.45;;;9.80;;
53833;SDS011;39735;51.432;5.482;2023-04-15T05:12:55;14.82;;;9.02;;
53833;SDS011;39735;51.432;5.482;2023-04-15T05:15:21;11.85;;;7.88;;
53833;SDS011;39735;51.432;5.482;2023-04-15T05:17:46;20.60;;;9.63;;
53833;SDS011;39735;51.432;5.482;2023-04-15T05:20:11;11.75;;;8.82;;
53833;SDS011;39735;51.432;5.482;2023-04-15T05:22:37;23.77;;;11.07;;
53833;SDS011;39735;51.432;5.482;2023-04-15T05:25:03;9.80;;;7.97;;
53833;SDS011;39735;51.432;5.482;2023-04-15T05:27:28;18.63;;;10.25;;
53833;SDS011;39735;51.432;5.482;2023-04-15T05:29:54;21.67;;;10.60;;
53833;SDS011;39735;51.432;5.482;2023-04-15T05:32:20;16.02;;;7.93;;
53833;SDS011;39735;51.432;5.482;2023-04-15T05:34:46;17.73;;;9.50;;
53833;SDS011;39735;51.432;5.482;2023-04-15T05:37:11;8.60;;;7.70;;
53833;SDS011;39735;51.432;5.482;2023-04-15T05:39:37;13.60;;;9.68;;
53833;SDS011;39735;51.432;5.482;2023-04-15T05:42:02;13.02;;;9.02;;
53833;SDS011;39735;51.432;5.482;2023-04-15T05:44:29;12.52;;;8.75;;
53833;SDS011;39735;51.432;5.482;2023-04-15T05:46:55;16.00;;;9.38;;
53833;SDS011;39735;51.432;5.482;2023-04-15T05:49:20;16.52;;;9.80;;
53833;SDS011;39735;51.432;5.482;2023-04-15T05:51:46;19.67;;;9.52;;
53833;SDS011;39735;51.432;5.482;2023-04-15T05:54:12;19.73;;;9.95;;
53833;SDS011;39735;51.432;5.482;2023-04-15T05:56:37;19.45;;;10.52;;
53833;SDS011;39735;51.432;5.482;2023-04-15T05:59:02;21.17;;;9.52;;
53833;SDS011;39735;51.432;5.482;2023-04-15T06:01:28;12.70;;;9.27;;
53833;SDS011;39735;51.432;5.482;2023-04-15T06:03:54;16.60;;;9.43;;
53833;SDS011;39735;51.432;5.482;2023-04-15T06:06:20;14.77;;;9.63;;
53833;SDS011;39735;51.432;5.482;2023-04-15T06:08:45;15.43;;;10.77;;
53833;SDS011;39735;51.432;5.482;2023-04-15T06:11:11;20.90;;;11.00;;
53833;SDS011;39735;51.432;5.482;2023-04-15T06:13:36;14.55;;;10.02;;
53833;SDS011;39735;51.432;5.482;2023-04-15T06:16:02;21.50;;;10.98;;
53833;SDS011;39735;51.432;5.482;2023-04-15T06:18:28;29.55;;;10.52;;
53833;SDS011;39735;51.432;5.482;2023-04-15T06:20:53;23.00;;;11.30;;
53833;SDS011;39735;51.432;5.482;2023-04-15T06:23:19;12.38;;;9.93;;
53833;SDS011;39735;51.432;5.482;2023-04-15T06:25:44;28.17;;;10.95;;
53833;SDS011;39735;51.432;5.482;2023-04-15T06:28:09;16.92;;;11.50;;
53833;SDS011;39735;51.432;5.482;2023-04-15T06:30:35;16.58;;;10.65;;
53833;SDS011;39735;51.432;5.482;2023-04-15T06:33:00;27.02;;;9.57;;
53833;SDS011;39735;51.432;5.482;2023-04-15T06:35:29;15.88;;;11.90;;
53833;SDS011;39735;51.432;5.482;2023-04-15T06:37:54;13.77;;;10.68;;
53833;SDS011;39735;51.432;5.482;2023-04-15T06:40:20;13.88;;;10.52;;
53833;SDS011;39735;51.432;5.482;2023-04-15T06:42:46;10.50;;;8.82;;
53833;SDS011;39735;51.432;5.482;2023-04-15T06:45:11;12.55;;;9.00;;
53833;SDS011;39735;51.432;5.482;2023-04-15T06:47:37;11.93;;;10.38;;
53833;SDS011;39735;51.432;5.482;2023-04-15T06:50:02;13.63;;;10.27;;
53833;SDS011;39735;51.432;5.482;2023-04-15T06:52:28;20.17;;;10.27;;
53833;SDS011;39735;51.432;5.482;2023-04-15T06:54:53;11.75;;;9.93;;
53833;SDS011;39735;51.432;5.482;2023-04-15T06:57:19;12.00;;;9.68;;
53833;SDS011;39735;51.432;5.482;2023-04-15T06:59:44;13.88;;;10.93;;
53833;SDS011;39735;51.432;5.482;2023-04-15T07:02:11;11.40;;;10.07;;
53833;SDS011;39735;51.432;5.482;2023-04-15T07:04:38;12.05;;;10.80;;
53833;SDS011;39735;51.432;5.482;2023-04-15T07:07:04;15.77;;;9.45;;
53833;SDS011;39735;51.432;5.482;2023-04-15T07:09:30;11.65;;;9.45;;
53833;SDS011;39735;51.432;5.482;2023-04-15T07:11:59;11.82;;;9.00;;
53833;SDS011;39735;51.432;5.482;2023-04-15T07:14:24;14.00;;;9.57;;
53833;SDS011;39735;51.432;5.482;2023-04-15T07:16:50;21.80;;;9.98;;
53833;SDS011;39735;51.432;5.482;2023-04-15T07:19:15;10.50;;;9.40;;
53833;SDS011;39735;51.432;5.482;2023-04-15T07:21:41;18.67;;;9.30;;
53833;SDS011;39735;51.432;5.482;2023-04-15T07:24:06;19.70;;;9.77;;
53833;SDS011;39735;51.432;5.482;2023-04-15T07:26:32;9.93;;;8.90;;
53833;SDS011;39735;51.432;5.482;2023-04-15T07:28:58;10.23;;;8.48;;
53833;SDS011;39735;51.432;5.482;2023-04-15T07:31:23;9.75;;;8.05;;
53833;SDS011;39735;51.432;5.482;2023-04-15T07:33:48;16.33;;;8.48;;
53833;SDS011;39735;51.432;5.482;2023-04-15T07:36:14;12.68;;;9.05;;
53833;SDS011;39735;51.432;5.482;2023-04-15T07:38:39;21.80;;;9.90;;
53833;SDS011;39735;51.432;5.482;2023-04-15T07:41:05;10.55;;;8.57;;
53833;SDS011;39735;51.432;5.482;2023-04-15T07:43:30;12.40;;;8.82;;
53833;SDS011;39735;51.432;5.482;2023-04-15T07:45:56;13.20;;;9.13;;
53833;SDS011;39735;51.432;5.482;2023-04-15T07:48:21;17.35;;;9.65;;
53833;SDS011;39735;51.432;5.482;2023-04-15T07:50:47;21.27;;;10.95;;
53833;SDS011;39735;51.432;5.482;2023-04-15T07:53:12;21.33;;;8.15;;
53833;SDS011;39735;51.432;5.482;2023-04-15T07:55:38;10.82;;;9.00;;
53833;SDS011;39735;51.432;5.482;2023-04-15T07:58:03;14.43;;;9.38;;
53833;SDS011;39735;51.432;5.482;2023-04-15T08:00:29;15.27;;;8.93;;
53833;SDS011;39735;51.432;5.482;2023-04-15T08:02:55;15.93;;;10.27;;
53833;SDS011;39735;51.432;5.482;2023-04-15T08:05:21;13.90;;;9.93;;
53833;SDS011;39735;51.432;5.482;2023-04-15T08:07:46;11.48;;;9.38;;
53833;SDS011;39735;51.432;5.482;2023-04-15T08:10:13;15.23;;;9.75;;
53833;SDS011;39735;51.432;5.482;2023-04-15T08:12:38;17.27;;;12.13;;
53833;SDS011;39735;51.432;5.482;2023-04-15T08:15:04;15.20;;;8.15;;
53833;SDS011;39735;51.432;5.482;2023-04-15T08:17:30;8.95;;;7.50;;
53833;SDS011;39735;51.432;5.482;2023-04-15T08:19:55;11.38;;;7.30;;
53833;SDS011;39735;51.432;5.482;2023-04-15T08:22:21;14.68;;;9.80;;
53833;SDS011;39735;51.432;5.482;2023-04-15T08:24:50;12.70;;;10.43;;
53833;SDS011;39735;51.432;5.482;2023-04-15T08:27:16;12.38;;;8.60;;
53833;SDS011;39735;51.432;5.482;2023-04-15T08:29:41;9.52;;;8.35;;
53833;SDS011;39735;51.432;5.482;2023-04-15T08:32:06;18.85;;;8.93;;
53833;SDS011;39735;51.432;5.482;2023-04-15T08:34:33;8.80;;;7.15;;
53833;SDS011;39735;51.432;5.482;2023-04-15T08:36:59;9.18;;;7.85;;
53833;SDS011;39735;51.432;5.482;2023-04-15T08:39:24;8.75;;;7.72;;
53833;SDS011;39735;51.432;5.482;2023-04-15T08:41:59;9.85;;;7.95;;
53833;SDS011;39735;51.432;5.482;2023-04-15T08:44:28;9.00;;;6.53;;
53833;SDS011;39735;51.432;5.482;2023-04-15T08:46:54;8.23;;;6.90;;
53833;SDS011;39735;51.432;5.482;2023-04-15T08:49:21;7.10;;;6.55;;
53833;SDS011;39735;51.432;5.482;2023-04-15T08:51:48;11.32;;;5.90;;
53833;SDS011;39735;51.432;5.482;2023-04-15T08:54:14;7.18;;;3.85;;
53833;SDS011;39735;51.432;5.482;2023-04-15T08:56:39;4.13;;;3.80;;
53833;SDS011;39735;51.432;5.482;2023-04-15T08:59:05;7.10;;;6.13;;
53833;SDS011;39735;51.432;5.482;2023-04-15T09:01:31;9.75;;;5.20;;
53833;SDS011;39735;51.432;5.482;2023-04-15T09:03:57;9.48;;;4.82;;
53833;SDS011;39735;51.432;5.482;2023-04-15T09:06:23;8.13;;;6.03;;
53833;SDS011;39735;51.432;5.482;2023-04-15T09:08:49;14.63;;;5.75;;
53833;SDS011;39735;51.432;5.482;2023-04-15T09:11:15;10.25;;;5.88;;
53833;SDS011;39735;51.432;5.482;2023-04-15T09:13:42;10.88;;;5.88;;
53833;SDS011;39735;51.432;5.482;2023-04-15T09:16:07;13.05;;;6.38;;
53833;SDS011;39735;51.432;5.482;2023-04-15T09:18:34;18.85;;;5.65;;
53833;SDS011;39735;51.432;5.482;2023-04-15T09:21:13;7.43;;;4.93;;
53833;SDS011;39735;51.432;5.482;2023-04-15T09:23:40;9.73;;;5.95;;
53833;SDS011;39735;51.432;5.482;2023-04-15T09:26:18;6.85;;;5.53;;
53833;SDS011;39735;51.432;5.482;2023-04-15T09:28:44;8.73;;;5.47;;
53833;SDS011;39735;51.432;5.482;2023-04-15T09:31:09;5.70;;;4.82;;
53833;SDS011;39735;51.432;5.482;2023-04-15T09:33:35;6.30;;;4.68;;
53833;SDS011;39735;51.432;5.482;2023-04-15T09:36:04;8.70;;;5.40;;
53833;SDS011;39735;51.432;5.482;2023-04-15T09:38:30;15.90;;;3.70;;
53833;SDS011;39735;51.432;5.482;2023-04-15T09:40:56;5.88;;;5.25;;
53833;SDS011;39735;51.432;5.482;2023-04-15T09:43:22;5.70;;;4.60;;
53833;SDS011;39735;51.432;5.482;2023-04-15T09:45:51;4.50;;;4.10;;
53833;SDS011;39735;51.432;5.482;2023-04-15T09:48:21;10.63;;;4.95;;
53833;SDS011;39735;51.432;5.482;2023-04-15T09:50:49;11.15;;;4.00;;
53833;SDS011;39735;51.432;5.482;2023-04-15T09:53:18;8.63;;;4.72;;
53833;SDS011;39735;51.432;5.482;2023-04-15T09:55:45;3.97;;;3.08;;
53833;SDS011;39735;51.432;5.482;2023-04-15T09:58:21;5.25;;;4.13;;
53833;SDS011;39735;51.432;5.482;2023-04-15T10:00:47;3.33;;;2.42;;
53833;SDS011;39735;51.432;5.482;2023-04-15T10:03:16;8.27;;;3.72;;
53833;SDS011;39735;51.432;5.482;2023-04-15T10:05:47;4.63;;;4.07;;
53833;SDS011;39735;51.432;5.482;2023-04-15T10:08:19;4.30;;;3.85;;
53833;SDS011;39735;51.432;5.482;2023-04-15T10:10:46;4.47;;;4.07;;
53833;SDS011;39735;51.432;5.482;2023-04-15T10:13:20;3.53;;;3.22;;
53833;SDS011;39735;51.432;5.482;2023-04-15T10:16:05;7.32;;;4.07;;
53833;SDS011;39735;51.432;5.482;2023-04-15T10:18:34;3.55;;;3.33;;
53833;SDS011;39735;51.432;5.482;2023-04-15T10:21:00;7.80;;;5.03;;
53833;SDS011;39735;51.432;5.482;2023-04-15T10:23:26;6.75;;;4.93;;
53833;SDS011;39735;51.432;5.482;2023-04-15T10:25:52;6.50;;;3.78;;
53833;SDS011;39735;51.432;5.482;2023-04-15T10:28:20;4.45;;;4.03;;
53833;SDS011;39735;51.432;5.482;2023-04-15T10:30:49;8.25;;;5.18;;
53833;SDS011;39735;51.432;5.482;2023-04-15T10:33:16;11.85;;;6.10;;
53833;SDS011;39735;51.432;5.482;2023-04-15T10:35:44;7.50;;;4.72;;
53833;SDS011;39735;51.432;5.482;2023-04-15T10:41:11;6.43;;;3.70;;
53833;SDS011;39735;51.432;5.482;2023-04-15T10:43:44;6.80;;;2.97;;
53833;SDS011;39735;51.432;5.482;2023-04-15T10:46:10;3.60;;;2.75;;
53833;SDS011;39735;51.432;5.482;2023-04-15T10:48:35;2.00;;;2.00;;
53833;SDS011;39735;51.432;5.482;2023-04-15T10:51:03;2.70;;;2.42;;
53833;SDS011;39735;51.432;5.482;2023-04-15T10:53:29;2.90;;;2.70;;
53833;SDS011;39735;51.432;5.482;2023-04-15T10:55:55;2.42;;;2.22;;
53833;SDS011;39735;51.432;5.482;2023-04-15T10:58:22;1.75;;;1.65;;
53833;SDS011;39735;51.432;5.482;2023-04-15T11:00:49;4.20;;;3.50;;
53833;SDS011;39735;51.432;5.482;2023-04-15T11:03:37;4.60;;;2.42;;
53833;SDS011;39735;51.432;5.482;2023-04-15T11:06:04;4.95;;;2.17;;
53833;SDS011;39735;51.432;5.482;2023-04-15T11:08:52;7.10;;;1.65;;
53833;SDS011;39735;51.432;5.482;2023-04-15T11:11:20;5.00;;;2.00;;
53833;SDS011;39735;51.432;5.482;2023-04-15T11:13:49;2.10;;;2.00;;
53833;SDS011;39735;51.432;5.482;2023-04-15T11:16:16;6.82;;;2.03;;
53833;SDS011;39735;51.432;5.482;2023-04-15T11:18:42;2.35;;;1.23;;
53833;SDS011;39735;51.432;5.482;2023-04-15T11:21:18;7.88;;;1.38;;
53833;SDS011;39735;51.432;5.482;2023-04-15T11:23:44;5.00;;;1.60;;
53833;SDS011;39735;51.432;5.482;2023-04-15T11:26:11;14.75;;;3.47;;
53833;SDS011;39735;51.432;5.482;2023-04-15T11:28:37;6.03;;;1.80;;
53833;SDS011;39735;51.432;5.482;2023-04-15T11:31:05;7.28;;;2.40;;
53833;SDS011;39735;51.432;5.482;2023-04-15T11:33:32;2.30;;;2.05;;
53833;SDS011;39735;51.432;5.482;2023-04-15T11:35:58;2.47;;;2.30;;
53833;SDS011;39735;51.432;5.482;2023-04-15T11:38:23;6.75;;;2.95;;
53833;SDS011;39735;51.432;5.482;2023-04-15T11:40:49;7.50;;;2.67;;
53833;SDS011;39735;51.432;5.482;2023-04-15T11:43:17;3.35;;;3.00;;
53833;SDS011;39735;51.432;5.482;2023-04-15T11:46:00;1.98;;;1.88;;
53833;SDS011;39735;51.432;5.482;2023-04-15T11:48:30;2.42;;;2.33;;
53833;SDS011;39735;51.432;5.482;2023-04-15T11:56:15;3.63;;;3.30;;
53833;SDS011;39735;51.432;5.482;2023-04-15T11:58:42;6.40;;;2.10;;
53833;SDS011;39735;51.432;5.482;2023-04-15T12:01:08;4.95;;;2.38;;
53833;SDS011;39735;51.432;5.482;2023-04-15T12:03:41;2.08;;;1.92;;
53833;SDS011;39735;51.432;5.482;2023-04-15T12:06:20;1.75;;;1.70;;
53833;SDS011;39735;51.432;5.482;2023-04-15T12:14:06;6.00;;;2.03;;
53833;SDS011;39735;51.432;5.482;2023-04-15T12:16:32;4.18;;;2.25;;
53833;SDS011;39735;51.432;5.482;2023-04-15T12:19:04;2.90;;;1.90;;
53833;SDS011;39735;51.432;5.482;2023-04-15T12:21:35;3.65;;;2.00;;
53833;SDS011;39735;51.432;5.482;2023-04-15T12:24:03;1.30;;;1.30;;
53833;SDS011;39735;51.432;5.482;2023-04-15T12:26:33;2.28;;;1.40;;
53833;SDS011;39735;51.432;5.482;2023-04-15T12:29:25;8.98;;;1.95;;
53833;SDS011;39735;51.432;5.482;2023-04-15T12:31:53;13.50;;;2.40;;
53833;SDS011;39735;51.432;5.482;2023-04-15T12:34:29;2.88;;;2.58;;
53833;SDS011;39735;51.432;5.482;2023-04-15T12:36:57;3.22;;;2.45;;
53833;SDS011;39735;51.432;5.482;2023-04-15T12:39:24;1.92;;;1.85;;
53833;SDS011;39735;51.432;5.482;2023-04-15T12:41:50;10.20;;;2.25;;
53833;SDS011;39735;51.432;5.482;2023-04-15T12:44:16;1.73;;;1.63;;
53833;SDS011;39735;51.432;5.482;2023-04-15T12:46:41;3.17;;;2.15;;
53833;SDS011;39735;51.432;5.482;2023-04-15T12:49:08;2.17;;;2.08;;
53833;SDS011;39735;51.432;5.482;2023-04-15T12:51:33;4.25;;;3.08;;
53833;SDS011;39735;51.432;5.482;2023-04-15T12:53:59;11.02;;;2.50;;
53833;SDS011;39735;51.432;5.482;2023-04-15T12:56:24;2.22;;;2.10;;
53833;SDS011;39735;51.432;5.482;2023-04-15T12:58:50;5.97;;;3.42;;
53833;SDS011;39735;51.432;5.482;2023-04-15T13:01:15;2.35;;;2.22;;
53833;SDS011;39735;51.432;5.482;2023-04-15T13:03:41;12.82;;;2.70;;
53833;SDS011;39735;51.432;5.482;2023-04-15T13:06:06;6.93;;;2.65;;
53833;SDS011;39735;51.432;5.482;2023-04-15T13:08:32;3.10;;;2.30;;
53833;SDS011;39735;51.432;5.482;2023-04-15T13:10:57;9.50;;;2.67;;
53833;SDS011;39735;51.432;5.482;2023-04-15T13:13:23;3.30;;;2.22;;
53833;SDS011;39735;51.432;5.482;2023-04-15T13:15:48;2.35;;;2.25;;
53833;SDS011;39735;51.432;5.482;2023-04-15T13:18:14;2.58;;;1.65;;
53833;SDS011;39735;51.432;5.482;2023-04-15T13:20:40;4.45;;;2.35;;
53833;SDS011;39735;51.432;5.482;2023-04-15T13:23:05;4.13;;;2.63;;
53833;SDS011;39735;51.432;5.482;2023-04-15T13:25:31;3.05;;;2.25;;
53833;SDS011;39735;51.432;5.482;2023-04-15T13:27:56;3.30;;;2.03;;
53833;SDS011;39735;51.432;5.482;2023-04-15T13:30:22;8.35;;;1.83;;
53833;SDS011;39735;51.432;5.482;2023-04-15T13:32:48;3.35;;;2.35;;
53833;SDS011;39735;51.432;5.482;2023-04-15T13:35:14;19.92;;;2.58;;
53833;SDS011;39735;51.432;5.482;2023-04-15T13:37:39;8.85;;;2.50;;
53833;SDS011;39735;51.432;5.482;2023-04-15T13:40:08;16.77;;;6.38;;
53833;SDS011;39735;51.432;5.482;2023-04-15T13:42:33;20.20;;;1.88;;
53833;SDS011;39735;51.432;5.482;2023-04-15T13:44:59;10.13;;;2.10;;
53833;SDS011;39735;51.432;5.482;2023-04-15T13:47:24;12.75;;;5.22;;
53833;SDS011;39735;51.432;5.482;2023-04-15T13:49:50;3.63;;;1.48;;
53833;SDS011;39735;51.432;5.482;2023-04-15T13:52:17;11.38;;;2.30;;
53833;SDS011;39735;51.432;5.482;2023-04-15T13:54:42;1.30;;;1.30;;
53833;SDS011;39735;51.432;5.482;2023-04-15T13:57:07;1.60;;;1.48;;
53833;SDS011;39735;51.432;5.482;2023-04-15T13:59:33;14.57;;;1.70;;
53833;SDS011;39735;51.432;5.482;2023-04-15T14:01:59;2.50;;;1.88;;
53833;SDS011;39735;51.432;5.482;2023-04-15T14:04:24;4.95;;;1.77;;
53833;SDS011;39735;51.432;5.482;2023-04-15T14:06:49;2.05;;;1.80;;
53833;SDS011;39735;51.432;5.482;2023-04-15T14:09:15;8.32;;;3.45;;
53833;SDS011;39735;51.432;5.482;2023-04-15T14:11:41;2.90;;;1.25;;
53833;SDS011;39735;51.432;5.482;2023-04-15T14:14:06;4.28;;;1.70;;
53833;SDS011;39735;51.432;5.482;2023-04-15T14:16:34;7.68;;;1.60;;
53833;SDS011;39735;51.432;5.482;2023-04-15T14:19:00;5.30;;;3.05;;
53833;SDS011;39735;51.432;5.482;2023-04-15T14:21:26;31.15;;;2.35;;
53833;SDS011;39735;51.432;5.482;2023-04-15T14:23:52;1.15;;;1.08;;
53833;SDS011;39735;51.432;5.482;2023-04-15T14:26:18;3.95;;;1.35;;
53833;SDS011;39735;51.432;5.482;2023-04-15T14:28:44;4.22;;;1.77;;
53833;SDS011;39735;51.432;5.482;2023-04-15T14:31:09;3.42;;;1.25;;
53833;SDS011;39735;51.432;5.482;2023-04-15T14:33:35;2.45;;;1.58;;
53833;SDS011;39735;51.432;5.482;2023-04-15T14:36:00;1.63;;;1.25;;
53833;SDS011;39735;51.432;5.482;2023-04-15T14:38:26;6.22;;;1.95;;
53833;SDS011;39735;51.432;5.482;2023-04-15T14:40:51;2.95;;;1.00;;
53833;SDS011;39735;51.432;5.482;2023-04-15T14:43:17;1.73;;;1.63;;
53833;SDS011;39735;51.432;5.482;2023-04-15T14:45:42;1.67;;;1.33;;
53833;SDS011;39735;51.432;5.482;2023-04-15T14:48:08;1.02;;;1.02;;